sensor_id;sensor_type;location;lat;lon;timestamp;P1;durP1;ratioP1;P2;durP2;ratioP2
57321;SDS011;43159;51.006;18.224;2023-08-06T00:09:04;8.00;;;2.80;;
57321;SDS011;43159;51.006;18.224;2023-08-06T00:18:46;4.50;;;1.90;;
57321;SDS011;43159;51.006;18.224;2023-08-06T00:28:29;16.20;;;3.50;;
57321;SDS011;43159;51.006;18.224;2023-08-06T00:38:13;6.80;;;2.50;;
57321;SDS011;43159;51.006;18.224;2023-08-06T00:47:55;7.00;;;2.80;;
57321;SDS011;43159;51.006;18.224;2023-08-06T00:57:39;7.10;;;3.30;;
57321;SDS011;43159;51.006;18.224;2023-08-06T01:17:58;10.00;;;4.00;;
57321;SDS011;43159;51.006;18.224;2023-08-06T01:35:08;11.80;;;4.40;;
57321;SDS011;43159;51.006;18.224;2023-08-06T01:45:07;9.40;;;3.80;;
57321;SDS011;43159;51.006;18.224;2023-08-06T01:54:52;6.80;;;3.10;;
57321;SDS011;43159;51.006;18.224;2023-08-06T02:04:35;9.10;;;4.20;;
57321;SDS011;43159;51.006;18.224;2023-08-06T02:14:17;36.30;;;6.20;;
57321;SDS011;43159;51.006;18.224;2023-08-06T02:21:34;33.30;;;9.80;;
57321;SDS011;43159;51.006;18.224;2023-08-06T02:31:17;10.40;;;4.50;;
57321;SDS011;43159;51.006;18.224;2023-08-06T02:41:02;19.40;;;6.50;;
57321;SDS011;43159;51.006;18.224;2023-08-06T02:50:49;10.90;;;5.50;;
57321;SDS011;43159;51.006;18.224;2023-08-06T03:00:36;40.10;;;7.10;;
57321;SDS011;43159;51.006;18.224;2023-08-06T03:10:19;15.00;;;5.30;;
57321;SDS011;43159;51.006;18.224;2023-08-06T03:20:02;27.20;;;4.50;;
57321;SDS011;43159;51.006;18.224;2023-08-06T03:29:45;11.80;;;4.80;;
57321;SDS011;43159;51.006;18.224;2023-08-06T03:39:27;11.00;;;5.50;;
57321;SDS011;43159;51.006;18.224;2023-08-06T03:49:10;6.70;;;4.00;;
57321;SDS011;43159;51.006;18.224;2023-08-06T03:58:54;10.60;;;5.10;;
57321;SDS011;43159;51.006;18.224;2023-08-06T04:08:36;11.30;;;5.00;;
57321;SDS011;43159;51.006;18.224;2023-08-06T04:18:19;11.40;;;5.10;;
57321;SDS011;43159;51.006;18.224;2023-08-06T04:35:22;11.90;;;6.70;;
57321;SDS011;43159;51.006;18.224;2023-08-06T04:45:06;12.90;;;6.70;;
57321;SDS011;43159;51.006;18.224;2023-08-06T04:54:54;14.40;;;3.60;;
57321;SDS011;43159;51.006;18.224;2023-08-06T05:04:37;11.40;;;6.50;;
57321;SDS011;43159;51.006;18.224;2023-08-06T05:14:22;9.60;;;4.90;;
57321;SDS011;43159;51.006;18.224;2023-08-06T05:24:04;10.40;;;4.80;;
57321;SDS011;43159;51.006;18.224;2023-08-06T05:33:47;9.60;;;4.40;;
57321;SDS011;43159;51.006;18.224;2023-08-06T05:43:30;9.90;;;4.70;;
57321;SDS011;43159;51.006;18.224;2023-08-06T05:53:16;9.20;;;4.00;;
57321;SDS011;43159;51.006;18.224;2023-08-06T06:03:00;9.30;;;4.20;;
57321;SDS011;43159;51.006;18.224;2023-08-06T06:12:45;9.10;;;3.80;;
57321;SDS011;43159;51.006;18.224;2023-08-06T06:22:30;10.30;;;4.30;;
57321;SDS011;43159;51.006;18.224;2023-08-06T06:32:14;9.40;;;3.10;;
57321;SDS011;43159;51.006;18.224;2023-08-06T06:41:58;6.90;;;2.50;;
57321;SDS011;43159;51.006;18.224;2023-08-06T06:51:41;5.20;;;1.90;;
57321;SDS011;43159;51.006;18.224;2023-08-06T07:01:24;3.00;;;1.40;;
57321;SDS011;43159;51.006;18.224;2023-08-06T07:11:10;3.70;;;1.30;;
57321;SDS011;43159;51.006;18.224;2023-08-06T07:20:54;0.50;;;0.50;;
57321;SDS011;43159;51.006;18.224;2023-08-06T07:30:39;0.40;;;0.40;;
57321;SDS011;43159;51.006;18.224;2023-08-06T07:40:23;0.50;;;0.50;;
57321;SDS011;43159;51.006;18.224;2023-08-06T07:50:07;0.70;;;0.70;;
57321;SDS011;43159;51.006;18.224;2023-08-06T07:59:50;0.80;;;0.80;;
57321;SDS011;43159;51.006;18.224;2023-08-06T08:09:34;6.20;;;1.60;;
57321;SDS011;43159;51.006;18.224;2023-08-06T08:19:20;1.50;;;0.90;;
57321;SDS011;43159;51.006;18.224;2023-08-06T08:29:03;10.70;;;1.30;;
57321;SDS011;43159;51.006;18.224;2023-08-06T08:38:46;4.50;;;0.70;;
57321;SDS011;43159;51.006;18.224;2023-08-06T08:48:29;0.40;;;0.40;;
57321;SDS011;43159;51.006;18.224;2023-08-06T08:58:12;2.70;;;0.90;;
57321;SDS011;43159;51.006;18.224;2023-08-06T09:07:59;6.70;;;1.30;;
57321;SDS011;43159;51.006;18.224;2023-08-06T09:17:46;2.80;;;0.80;;
57321;SDS011;43159;51.006;18.224;2023-08-06T09:27:35;0.60;;;0.60;;
57321;SDS011;43159;51.006;18.224;2023-08-06T09:37:42;1.00;;;0.80;;
57321;SDS011;43159;51.006;18.224;2023-08-06T09:47:41;3.30;;;1.10;;
57321;SDS011;43159;51.006;18.224;2023-08-06T09:57:32;5.50;;;1.40;;
57321;SDS011;43159;51.006;18.224;2023-08-06T10:07:14;1.10;;;1.00;;
57321;SDS011;43159;51.006;18.224;2023-08-06T10:16:58;1.50;;;0.90;;
57321;SDS011;43159;51.006;18.224;2023-08-06T10:27:13;0.50;;;0.50;;
57321;SDS011;43159;51.006;18.224;2023-08-06T10:37:17;2.80;;;0.90;;
57321;SDS011;43159;51.006;18.224;2023-08-06T10:47:29;0.80;;;0.80;;
57321;SDS011;43159;51.006;18.224;2023-08-06T10:57:11;1.20;;;0.90;;
57321;SDS011;43159;51.006;18.224;2023-08-06T11:06:56;5.00;;;0.90;;
57321;SDS011;43159;51.006;18.224;2023-08-06T11:16:42;6.30;;;1.30;;
57321;SDS011;43159;51.006;18.224;2023-08-06T11:26:25;2.00;;;0.70;;
57321;SDS011;43159;51.006;18.224;2023-08-06T11:36:13;2.50;;;0.70;;
57321;SDS011;43159;51.006;18.224;2023-08-06T11:45:56;14.40;;;1.10;;
57321;SDS011;43159;51.006;18.224;2023-08-06T11:55:39;3.80;;;0.90;;
57321;SDS011;43159;51.006;18.224;2023-08-06T12:05:22;0.90;;;0.90;;
57321;SDS011;43159;51.006;18.224;2023-08-06T12:15:08;3.50;;;1.00;;
57321;SDS011;43159;51.006;18.224;2023-08-06T12:24:52;2.70;;;1.20;;
57321;SDS011;43159;51.006;18.224;2023-08-06T12:34:36;3.20;;;1.50;;
57321;SDS011;43159;51.006;18.224;2023-08-06T12:44:25;1.90;;;1.40;;
57321;SDS011;43159;51.006;18.224;2023-08-06T12:54:08;5.10;;;1.70;;
57321;SDS011;43159;51.006;18.224;2023-08-06T13:03:51;2.20;;;1.30;;
57321;SDS011;43159;51.006;18.224;2023-08-06T13:13:33;1.20;;;1.10;;
57321;SDS011;43159;51.006;18.224;2023-08-06T13:23:18;2.20;;;1.00;;
57321;SDS011;43159;51.006;18.224;2023-08-06T13:33:01;0.90;;;0.90;;
57321;SDS011;43159;51.006;18.224;2023-08-06T13:42:45;1.00;;;0.90;;
57321;SDS011;43159;51.006;18.224;2023-08-06T13:52:29;0.80;;;0.80;;
57321;SDS011;43159;51.006;18.224;2023-08-06T14:02:11;3.00;;;1.00;;
57321;SDS011;43159;51.006;18.224;2023-08-06T14:11:54;7.10;;;1.70;;
57321;SDS011;43159;51.006;18.224;2023-08-06T14:21:45;10.90;;;2.60;;
57321;SDS011;43159;51.006;18.224;2023-08-06T14:31:28;11.60;;;2.50;;
57321;SDS011;43159;51.006;18.224;2023-08-06T14:41:11;4.80;;;1.20;;
57321;SDS011;43159;51.006;18.224;2023-08-06T14:50:54;7.70;;;1.70;;
57321;SDS011;43159;51.006;18.224;2023-08-06T15:00:36;5.10;;;1.60;;
57321;SDS011;43159;51.006;18.224;2023-08-06T15:10:19;2.50;;;1.40;;
57321;SDS011;43159;51.006;18.224;2023-08-06T15:20:01;11.50;;;1.90;;
57321;SDS011;43159;51.006;18.224;2023-08-06T15:29:48;8.00;;;2.00;;
57321;SDS011;43159;51.006;18.224;2023-08-06T15:39:31;4.70;;;1.50;;
57321;SDS011;43159;51.006;18.224;2023-08-06T15:49:13;7.60;;;1.80;;
57321;SDS011;43159;51.006;18.224;2023-08-06T15:58:57;7.20;;;2.30;;
57321;SDS011;43159;51.006;18.224;2023-08-06T16:08:39;5.60;;;1.70;;
57321;SDS011;43159;51.006;18.224;2023-08-06T16:18:23;5.00;;;1.40;;
57321;SDS011;43159;51.006;18.224;2023-08-06T16:28:12;5.40;;;1.20;;
57321;SDS011;43159;51.006;18.224;2023-08-06T16:38:02;3.30;;;1.50;;
57321;SDS011;43159;51.006;18.224;2023-08-06T16:47:45;1.90;;;1.10;;
57321;SDS011;43159;51.006;18.224;2023-08-06T16:57:27;4.20;;;1.60;;
57321;SDS011;43159;51.006;18.224;2023-08-06T17:07:10;3.00;;;1.50;;
57321;SDS011;43159;51.006;18.224;2023-08-06T17:16:53;6.60;;;2.10;;
57321;SDS011;43159;51.006;18.224;2023-08-06T17:26:35;7.40;;;2.00;;
57321;SDS011;43159;51.006;18.224;2023-08-06T17:36:17;6.30;;;2.10;;
57321;SDS011;43159;51.006;18.224;2023-08-06T17:45:59;7.10;;;2.30;;
57321;SDS011;43159;51.006;18.224;2023-08-06T17:55:43;6.50;;;1.80;;
57321;SDS011;43159;51.006;18.224;2023-08-06T18:05:28;6.10;;;2.00;;
57321;SDS011;43159;51.006;18.224;2023-08-06T18:15:13;7.70;;;2.30;;
57321;SDS011;43159;51.006;18.224;2023-08-06T18:24:59;5.90;;;2.10;;
57321;SDS011;43159;51.006;18.224;2023-08-06T18:34:44;9.50;;;2.90;;
57321;SDS011;43159;51.006;18.224;2023-08-06T18:44:27;10.50;;;3.50;;
57321;SDS011;43159;51.006;18.224;2023-08-06T18:54:10;6.60;;;2.10;;
57321;SDS011;43159;51.006;18.224;2023-08-06T19:03:52;6.10;;;2.10;;
57321;SDS011;43159;51.006;18.224;2023-08-06T19:13:34;5.90;;;2.30;;
57321;SDS011;43159;51.006;18.224;2023-08-06T19:23:20;7.60;;;2.00;;
57321;SDS011;43159;51.006;18.224;2023-08-06T19:33:07;5.40;;;1.60;;
57321;SDS011;43159;51.006;18.224;2023-08-06T19:42:52;6.30;;;2.60;;
57321;SDS011;43159;51.006;18.224;2023-08-06T19:52:34;7.10;;;2.50;;
57321;SDS011;43159;51.006;18.224;2023-08-06T20:02:16;6.60;;;2.50;;
57321;SDS011;43159;51.006;18.224;2023-08-06T20:11:59;8.60;;;2.80;;
57321;SDS011;43159;51.006;18.224;2023-08-06T20:21:41;8.20;;;2.30;;
57321;SDS011;43159;51.006;18.224;2023-08-06T20:31:24;7.60;;;2.00;;
57321;SDS011;43159;51.006;18.224;2023-08-06T20:41:08;17.70;;;2.90;;
57321;SDS011;43159;51.006;18.224;2023-08-06T20:50:56;10.50;;;1.80;;
57321;SDS011;43159;51.006;18.224;2023-08-06T21:00:47;11.50;;;3.00;;
57321;SDS011;43159;51.006;18.224;2023-08-06T21:10:30;5.10;;;2.10;;
57321;SDS011;43159;51.006;18.224;2023-08-06T21:20:12;5.40;;;2.00;;
57321;SDS011;43159;51.006;18.224;2023-08-06T21:29:55;6.20;;;2.00;;
57321;SDS011;43159;51.006;18.224;2023-08-06T21:39:36;7.70;;;2.50;;
57321;SDS011;43159;51.006;18.224;2023-08-06T21:49:19;9.30;;;3.30;;
57321;SDS011;43159;51.006;18.224;2023-08-06T21:59:07;12.20;;;3.20;;
57321;SDS011;43159;51.006;18.224;2023-08-06T22:08:49;9.10;;;3.40;;
57321;SDS011;43159;51.006;18.224;2023-08-06T22:18:35;9.20;;;2.40;;
57321;SDS011;43159;51.006;18.224;2023-08-06T22:28:20;4.50;;;2.00;;
57321;SDS011;43159;51.006;18.224;2023-08-06T22:38:03;10.50;;;3.90;;
57321;SDS011;43159;51.006;18.224;2023-08-06T22:47:45;5.90;;;2.10;;
57321;SDS011;43159;51.006;18.224;2023-08-06T22:57:29;10.60;;;3.60;;
57321;SDS011;43159;51.006;18.224;2023-08-06T23:07:13;12.70;;;3.20;;
57321;SDS011;43159;51.006;18.224;2023-08-06T23:16:55;13.00;;;2.80;;
57321;SDS011;43159;51.006;18.224;2023-08-06T23:26:37;6.70;;;3.00;;
57321;SDS011;43159;51.006;18.224;2023-08-06T23:36:19;7.90;;;2.20;;
57321;SDS011;43159;51.006;18.224;2023-08-06T23:46:02;8.50;;;2.20;;
57321;SDS011;43159;51.006;18.224;2023-08-06T23:55:47;6.90;;;3.00;;
